Arc Isla Tesoro — 5KTK — position and weather

sailwx.info

Track history (hours):
 
Tides and Currents Weather Stations Pressure Air Temp Water Temp Dewpoint Dewpoint Depression Visibility Wind Speed Wind Dir Waves Ship Positions

Arc Isla Tesoro

Last reported at 2018-Jan-19 17:47 UTC. Time now 2018-Jan-20 17:04 UTC.
Position N 10°23' W 075°32'.

Type: Other ship. MMSI: 730050001.

Date/timePositionNaut miles runAvg speedWind from/ knotsBaromVisibWave heightAir tempDewpointWater temp
2018-Jan-19 17:47N 10°23' W 075°32'310.6
2018-Jan-19 17:30N 10°20' W 075°31'2 3.3
2018-Jan-19 16:51N 10°18' W 075°30'0 0.0
2018-Jan-19 16:30N 10°18' W 075°30'2 3.4
2018-Jan-19 15:59N 10°19' W 075°32'0 0.0
2018-Jan-19 15:29N 10°19' W 075°32'2 4.8
2018-Jan-19 14:59N 10°22' W 075°32'3 1.6
2018-Jan-19 13:14N 10°24' W 075°32'2 5.9
2018-Jan-19 12:58N 10°25' W 075°33'1 0.0
2018-Jan-18 00:05N 10°25' W 075°33'1 9.3
2018-Jan-17 23:59N 10°24' W 075°33'111.0
2018-Jan-17 23:56N 10°23' W 075°33'  
2018-Jan-11 21:44N 10°25' W 075°33'1 1.0
2018-Jan-11 21:07N 10°25' W 075°33'0 0.2
2018-Jan-11 20:51N 10°25' W 075°33'2 6.5
2018-Jan-11 20:30N 10°23' W 075°32'2 3.7
2018-Jan-11 20:00N 10°22' W 075°31'3 5.6
2018-Jan-11 19:30N 10°24' W 075°32'  
Track history (hours):
 
Tides and Currents Weather Stations Pressure Air Temp Water Temp Dewpoint Dewpoint Depression Visibility Wind Speed Wind Dir Waves Ship Positions

Arc Isla Tesoro

Last reported at 2018-Jan-19 17:47 UTC. Time now 2018-Jan-20 17:04 UTC.
Position N 10°23' W 075°32'.

Type: Other ship. MMSI: 730050001.

Date/timePositionNaut miles runAvg speedWind from/ knotsBaromVisibWave heightAir tempDewpointWater temp
2018-Jan-19 17:47N 10°23' W 075°32'310.6
2018-Jan-19 17:30N 10°20' W 075°31'2 3.3
2018-Jan-19 16:51N 10°18' W 075°30'0 0.0
2018-Jan-19 16:30N 10°18' W 075°30'2 3.4
2018-Jan-19 15:59N 10°19' W 075°32'0 0.0
2018-Jan-19 15:29N 10°19' W 075°32'2 4.8
2018-Jan-19 14:59N 10°22' W 075°32'3 1.6
2018-Jan-19 13:14N 10°24' W 075°32'2 5.9
2018-Jan-19 12:58N 10°25' W 075°33'1 0.0
2018-Jan-18 00:05N 10°25' W 075°33'1 9.3
2018-Jan-17 23:59N 10°24' W 075°33'111.0
2018-Jan-17 23:56N 10°23' W 075°33'  
2018-Jan-11 21:44N 10°25' W 075°33'1 1.0
2018-Jan-11 21:07N 10°25' W 075°33'0 0.2
2018-Jan-11 20:51N 10°25' W 075°33'2 6.5
2018-Jan-11 20:30N 10°23' W 075°32'2 3.7
2018-Jan-11 20:00N 10°22' W 075°31'3 5.6
2018-Jan-11 19:30N 10°24' W 075°32'  

Dump ship's entire track history